| Date | Time | Temp. (oF) | Dew Point (oF) | Rel. Hum. (%) | Press. (in.) | Wind Dir. (deg.) | Wind Speed (mph) | Hourly Rainfall (i n.) |
|
|---|---|---|---|---|---|---|---|---|---|
| 1 | 04/16 | 24:00 | 48 | 43 | 83 | 29.63 | 230 | 0 | 0.00 |
| 2 | 04/15 | 23:00 | 48 | 42 | 82 | 29.66 | 230 | 0 | 0.00 |
| 3 | 04/15 | 22:00 | 49 | 43 | 80 | 29.70 | 230 | 0 | 0.00 |
| 4 | 04/15 | 21:00 | 49 | 43 | 81 | 29.74 | 230 | 0 | 0.01 |
| 5 | 04/15 | 20:00 | 50 | 45 | 83 | 29.77 | 150 | 1 | 0.00 |
| 6 | 04/15 | 19:00 | 50 | 44 | 81 | 29.77 | 50 | 1 | 0.00 |
| 7 | 04/15 | 18:00 | 52 | 42 | 71 | 29.73 | 20 | 0 | 0.04 |
| 8 | 04/15 | 17:00 | 54 | 42 | 64 | 29.78 | 310 | 4 | 0.02 |
| 9 | 04/15 | 16:00 | 63 | 25 | 24 | 29.78 | 330 | 4 | 0.00 |
| 10 | 04/15 | 15:00 | 65 | 26 | 24 | 29.83 | 140 | 4 | 0.00 |
| 11 | 04/15 | 14:00 | 66 | 28 | 25 | 29.86 | 270 | 4 | 0.00 |
| 12 | 04/15 | 13:00 | 65 | 28 | 26 | 29.89 | 50 | 1 | 0.00 |
| 13 | 04/15 | 12:00 | 64 | 30 | 29 | 29.91 | 290 | 2 | 0.00 |
| 14 | 04/15 | 11:00 | 61 | 31 | 33 | 29.93 | 270 | 6 | 0.00 |
| 15 | 04/15 | 10:00 | 54 | 31 | 43 | 29.92 | 290 | 0 | 0.00 |
| 16 | 04/15 | 09:00 | 48 | 33 | 56 | 29.93 | 290 | 0 | 0.00 |
| 17 | 04/15 | 08:00 | 41 | 28 | 62 | 29.93 | 290 | 1 | 0.00 |
| 18 | 04/15 | 07:00 | 40 | 26 | 58 | 29.94 | 290 | 0 | 0.00 |
| 19 | 04/15 | 06:00 | 40 | 25 | 57 | 29.92 | 290 | 0 | 0.00 |
| 20 | 04/15 | 05:00 | 42 | 26 | 55 | 29.91 | 290 | 1 | 0.00 |
| 21 | 04/15 | 04:00 | 43 | 26 | 52 | 29.91 | 290 | 1 | 0.00 |
| 22 | 04/15 | 03:00 | 45 | 27 | 51 | 29.93 | 290 | 0 | 0.00 |
| 23 | 04/15 | 02:00 | 48 | 25 | 41 | 29.94 | 290 | 0 | 0.00 |
| 24 | 04/15 | 01:00 | 49 | 24 | 39 | 29.94 | 300 | 1 | 0.00 |